<?xml version="1.0" encoding="UTF-8" standalone="no" ?>
<gpx xmlns="http://www.topografix.com/GPX/1/1" xmlns:xsi="http://www.w3.org/2001/XMLSchema-instance" xsi:schemaLocation="http://www.topografix.com/GPX/1/1 http://www.topografix.com/GPX/1/1/gpx.xsd" version="1.1" creator="VisuGPX - https://www.visugpx.com">
  <metadata>
    <name> SUC DE JALORE - SUC D'EMERAL</name>
    <desc><![CDATA[Belle randonnée, relief varié, difficulté moyenne ]]></desc>
  </metadata>
  <trk>
    <name><![CDATA[HTE LOIRE SUC DE JALORE - SUC D'EMERALE]]></name>
    <trkseg>
      <trkpt lat="45.14957" lon="4.00307">
        <ele>931</ele>
        <time>2017-08-14T09:37:01.000Z</time>
      </trkpt>
      <trkpt lat="45.14954" lon="4.00307">
        <ele>926</ele>
        <time>2017-08-14T09:38:05.000Z</time>
      </trkpt>
      <trkpt lat="45.14956" lon="4.00304">
        <ele>939</ele>
        <time>2017-08-14T09:42:22.000Z</time>
      </trkpt>
      <trkpt lat="45.14958" lon="4.00233">
        <ele>932</ele>
        <time>2017-08-14T09:45:42.000Z</time>
      </trkpt>
      <trkpt lat="45.14957" lon="4.00233">
        <ele>933</ele>
        <time>2017-08-14T09:45:43.000Z</time>
      </trkpt>
      <trkpt lat="45.1495" lon="4.00263">
        <ele>939</ele>
        <time>2017-08-14T09:46:16.000Z</time>
      </trkpt>
      <trkpt lat="45.1495" lon="4.00264">
        <ele>938</ele>
        <time>2017-08-14T09:46:17.000Z</time>
      </trkpt>
      <trkpt lat="45.14962" lon="4.00292">
        <ele>936</ele>
        <time>2017-08-14T09:46:36.000Z</time>
      </trkpt>
      <trkpt lat="45.14961" lon="4.00294">
        <ele>937</ele>
        <time>2017-08-14T09:46:37.000Z</time>
      </trkpt>
      <trkpt lat="45.14966" lon="4.00332">
        <ele>918</ele>
        <time>2017-08-14T09:48:02.000Z</time>
      </trkpt>
      <trkpt lat="45.14965" lon="4.00334">
        <ele>918</ele>
        <time>2017-08-14T09:48:03.000Z</time>
      </trkpt>
      <trkpt lat="45.14965" lon="4.00301">
        <ele>925</ele>
        <time>2017-08-14T09:48:39.000Z</time>
      </trkpt>
      <trkpt lat="45.14966" lon="4.003">
        <ele>925</ele>
        <time>2017-08-14T09:48:40.000Z</time>
      </trkpt>
      <trkpt lat="45.14981" lon="4.00268">
        <ele>931</ele>
        <time>2017-08-14T09:49:11.000Z</time>
      </trkpt>
      <trkpt lat="45.14982" lon="4.00268">
        <ele>931</ele>
        <time>2017-08-14T09:49:12.000Z</time>
      </trkpt>
      <trkpt lat="45.14992" lon="4.00239">
        <ele>935</ele>
        <time>2017-08-14T09:49:51.000Z</time>
      </trkpt>
      <trkpt lat="45.14991" lon="4.00238">
        <ele>936</ele>
        <time>2017-08-14T09:49:52.000Z</time>
      </trkpt>
      <trkpt lat="45.14995" lon="4.00205">
        <ele>928</ele>
        <time>2017-08-14T09:50:27.000Z</time>
      </trkpt>
      <trkpt lat="45.14996" lon="4.00204">
        <ele>929</ele>
        <time>2017-08-14T09:50:28.000Z</time>
      </trkpt>
      <trkpt lat="45.15003" lon="4.00173">
        <ele>932</ele>
        <time>2017-08-14T09:51:03.000Z</time>
      </trkpt>
      <trkpt lat="45.15002" lon="4.00171">
        <ele>931</ele>
        <time>2017-08-14T09:51:04.000Z</time>
      </trkpt>
      <trkpt lat="45.1502" lon="4.0015">
        <ele>926</ele>
        <time>2017-08-14T09:51:27.000Z</time>
      </trkpt>
      <trkpt lat="45.15021" lon="4.00149">
        <ele>926</ele>
        <time>2017-08-14T09:51:28.000Z</time>
      </trkpt>
      <trkpt lat="45.15037" lon="4.00126">
        <ele>935</ele>
        <time>2017-08-14T09:51:47.000Z</time>
      </trkpt>
      <trkpt lat="45.15038" lon="4.00125">
        <ele>935</ele>
        <time>2017-08-14T09:51:48.000Z</time>
      </trkpt>
      <trkpt lat="45.15022" lon="4.00147">
        <ele>929</ele>
        <time>2017-08-14T09:52:32.000Z</time>
      </trkpt>
      <trkpt lat="45.15021" lon="4.00148">
        <ele>929</ele>
        <time>2017-08-14T09:52:33.000Z</time>
      </trkpt>
      <trkpt lat="45.1501" lon="4.00178">
        <ele>927</ele>
        <time>2017-08-14T09:54:45.000Z</time>
      </trkpt>
      <trkpt lat="45.1501" lon="4.00179">
        <ele>927</ele>
        <time>2017-08-14T09:54:46.000Z</time>
      </trkpt>
      <trkpt lat="45.15004" lon="4.00211">
        <ele>930</ele>
        <time>2017-08-14T09:55:13.000Z</time>
      </trkpt>
      <trkpt lat="45.15004" lon="4.00211">
        <ele>930</ele>
        <time>2017-08-14T09:55:14.000Z</time>
      </trkpt>
      <trkpt lat="45.1503" lon="4.00266">
        <ele>941</ele>
        <time>2017-08-14T09:56:21.000Z</time>
      </trkpt>
      <trkpt lat="45.15031" lon="4.00266">
        <ele>942</ele>
        <time>2017-08-14T09:56:22.000Z</time>
      </trkpt>
      <trkpt lat="45.15179" lon="3.99994">
        <ele>952</ele>
        <time>2017-08-14T10:00:56.000Z</time>
      </trkpt>
      <trkpt lat="45.15179" lon="3.99994">
        <ele>952</ele>
        <time>2017-08-14T10:01:44.000Z</time>
      </trkpt>
      <trkpt lat="45.15274" lon="3.99808">
        <ele>1003</ele>
        <time>2017-08-14T10:05:09.000Z</time>
      </trkpt>
      <trkpt lat="45.15274" lon="3.99808">
        <ele>1003</ele>
        <time>2017-08-14T10:06:20.000Z</time>
      </trkpt>
      <trkpt lat="45.15311" lon="3.99773">
        <ele>983</ele>
        <time>2017-08-14T10:06:30.000Z</time>
      </trkpt>
      <trkpt lat="45.15311" lon="3.99773">
        <ele>982</ele>
        <time>2017-08-14T10:06:31.000Z</time>
      </trkpt>
      <trkpt lat="45.15285" lon="3.99815">
        <ele>958</ele>
        <time>2017-08-14T10:07:23.000Z</time>
      </trkpt>
      <trkpt lat="45.15285" lon="3.99816">
        <ele>958</ele>
        <time>2017-08-14T10:07:24.000Z</time>
      </trkpt>
      <trkpt lat="45.15239" lon="3.99849">
        <ele>955</ele>
        <time>2017-08-14T10:08:52.000Z</time>
      </trkpt>
      <trkpt lat="45.15235" lon="3.99853">
        <ele>950</ele>
        <time>2017-08-14T10:08:55.000Z</time>
      </trkpt>
      <trkpt lat="45.15188" lon="3.99991">
        <ele>1008</ele>
        <time>2017-08-14T10:11:57.000Z</time>
      </trkpt>
      <trkpt lat="45.15184" lon="3.9998">
        <ele>1001</ele>
        <time>2017-08-14T10:11:58.000Z</time>
      </trkpt>
      <trkpt lat="45.15171" lon="3.9995">
        <ele>983</ele>
        <time>2017-08-14T10:12:01.000Z</time>
      </trkpt>
      <trkpt lat="45.15167" lon="3.99939">
        <ele>978</ele>
        <time>2017-08-14T10:12:02.000Z</time>
      </trkpt>
      <trkpt lat="45.15152" lon="3.99907">
        <ele>959</ele>
        <time>2017-08-14T10:12:06.000Z</time>
      </trkpt>
      <trkpt lat="45.15149" lon="3.99901">
        <ele>956</ele>
        <time>2017-08-14T10:12:07.000Z</time>
      </trkpt>
      <trkpt lat="45.15134" lon="3.99871">
        <ele>939</ele>
        <time>2017-08-14T10:12:13.000Z</time>
      </trkpt>
      <trkpt lat="45.15132" lon="3.99867">
        <ele>937</ele>
        <time>2017-08-14T10:12:14.000Z</time>
      </trkpt>
      <trkpt lat="45.15118" lon="3.99834">
        <ele>916</ele>
        <time>2017-08-14T10:12:32.000Z</time>
      </trkpt>
      <trkpt lat="45.15119" lon="3.99832">
        <ele>916</ele>
        <time>2017-08-14T10:12:33.000Z</time>
      </trkpt>
      <trkpt lat="45.15134" lon="3.99808">
        <ele>914</ele>
        <time>2017-08-14T10:13:27.000Z</time>
      </trkpt>
      <trkpt lat="45.15134" lon="3.99808">
        <ele>914</ele>
        <time>2017-08-14T10:13:28.000Z</time>
      </trkpt>
      <trkpt lat="45.15147" lon="3.99785">
        <ele>918</ele>
        <time>2017-08-14T10:14:06.000Z</time>
      </trkpt>
      <trkpt lat="45.15722" lon="4.00507">
        <ele>878</ele>
        <time>2017-08-14T10:48:28.000Z</time>
      </trkpt>
      <trkpt lat="45.15717" lon="4.00554">
        <ele>916</ele>
        <time>2017-08-14T10:48:29.000Z</time>
      </trkpt>
      <trkpt lat="45.15717" lon="4.00554">
        <ele>916</ele>
        <time>2017-08-14T10:48:30.000Z</time>
      </trkpt>
      <trkpt lat="45.15706" lon="4.00583">
        <ele>900</ele>
        <time>2017-08-14T10:48:59.000Z</time>
      </trkpt>
      <trkpt lat="45.15706" lon="4.00584">
        <ele>900</ele>
        <time>2017-08-14T10:49:00.000Z</time>
      </trkpt>
      <trkpt lat="45.15707" lon="4.00617">
        <ele>902</ele>
        <time>2017-08-14T10:49:15.000Z</time>
      </trkpt>
      <trkpt lat="45.15707" lon="4.00619">
        <ele>903</ele>
        <time>2017-08-14T10:49:16.000Z</time>
      </trkpt>
      <trkpt lat="45.15716" lon="4.00649">
        <ele>915</ele>
        <time>2017-08-14T10:49:33.000Z</time>
      </trkpt>
      <trkpt lat="45.15717" lon="4.00651">
        <ele>915</ele>
        <time>2017-08-14T10:49:34.000Z</time>
      </trkpt>
      <trkpt lat="45.15739" lon="4.00649">
        <ele>913</ele>
        <time>2017-08-14T10:50:15.000Z</time>
      </trkpt>
      <trkpt lat="45.1574" lon="4.00649">
        <ele>913</ele>
        <time>2017-08-14T10:50:16.000Z</time>
      </trkpt>
      <trkpt lat="45.15765" lon="4.00648">
        <ele>912</ele>
        <time>2017-08-14T10:50:31.000Z</time>
      </trkpt>
      <trkpt lat="45.15767" lon="4.00648">
        <ele>912</ele>
        <time>2017-08-14T10:50:32.000Z</time>
      </trkpt>
      <trkpt lat="45.1579" lon="4.00646">
        <ele>905</ele>
        <time>2017-08-14T10:50:52.000Z</time>
      </trkpt>
      <trkpt lat="45.15796" lon="4.00645">
        <ele>903</ele>
        <time>2017-08-14T10:50:55.000Z</time>
      </trkpt>
      <trkpt lat="45.15818" lon="4.00642">
        <ele>901</ele>
        <time>2017-08-14T10:51:13.000Z</time>
      </trkpt>
      <trkpt lat="45.15819" lon="4.00641">
        <ele>900</ele>
        <time>2017-08-14T10:51:14.000Z</time>
      </trkpt>
      <trkpt lat="45.15839" lon="4.00624">
        <ele>897</ele>
        <time>2017-08-14T10:51:27.000Z</time>
      </trkpt>
      <trkpt lat="45.15839" lon="4.00623">
        <ele>897</ele>
        <time>2017-08-14T10:51:28.000Z</time>
      </trkpt>
      <trkpt lat="45.15849" lon="4.00591">
        <ele>887</ele>
        <time>2017-08-14T10:51:42.000Z</time>
      </trkpt>
      <trkpt lat="45.15852" lon="4.00582">
        <ele>885</ele>
        <time>2017-08-14T10:51:45.000Z</time>
      </trkpt>
      <trkpt lat="45.15862" lon="4.00553">
        <ele>884</ele>
        <time>2017-08-14T10:51:59.000Z</time>
      </trkpt>
      <trkpt lat="45.15862" lon="4.00552">
        <ele>886</ele>
        <time>2017-08-14T10:52:00.000Z</time>
      </trkpt>
      <trkpt lat="45.1587" lon="4.00521">
        <ele>896</ele>
        <time>2017-08-14T10:52:47.000Z</time>
      </trkpt>
      <trkpt lat="45.15871" lon="4.00519">
        <ele>895</ele>
        <time>2017-08-14T10:52:48.000Z</time>
      </trkpt>
      <trkpt lat="45.15879" lon="4.00488">
        <ele>890</ele>
        <time>2017-08-14T10:53:07.000Z</time>
      </trkpt>
      <trkpt lat="45.15879" lon="4.00487">
        <ele>889</ele>
        <time>2017-08-14T10:53:08.000Z</time>
      </trkpt>
      <trkpt lat="45.15885" lon="4.00454">
        <ele>888</ele>
        <time>2017-08-14T10:53:26.000Z</time>
      </trkpt>
      <trkpt lat="45.15885" lon="4.00453">
        <ele>888</ele>
        <time>2017-08-14T10:53:27.000Z</time>
      </trkpt>
      <trkpt lat="45.15894" lon="4.00422">
        <ele>888</ele>
        <time>2017-08-14T10:53:48.000Z</time>
      </trkpt>
      <trkpt lat="45.15895" lon="4.00421">
        <ele>888</ele>
        <time>2017-08-14T10:53:49.000Z</time>
      </trkpt>
      <trkpt lat="45.15913" lon="4.00389">
        <ele>888</ele>
        <time>2017-08-14T10:54:10.000Z</time>
      </trkpt>
      <trkpt lat="45.15915" lon="4.00387">
        <ele>888</ele>
        <time>2017-08-14T10:54:11.000Z</time>
      </trkpt>
      <trkpt lat="45.15918" lon="4.00355">
        <ele>885</ele>
        <time>2017-08-14T10:54:29.000Z</time>
      </trkpt>
      <trkpt lat="45.15919" lon="4.00354">
        <ele>885</ele>
        <time>2017-08-14T10:54:30.000Z</time>
      </trkpt>
      <trkpt lat="45.15919" lon="4.00322">
        <ele>879</ele>
        <time>2017-08-14T10:54:48.000Z</time>
      </trkpt>
      <trkpt lat="45.15919" lon="4.00322">
        <ele>879</ele>
        <time>2017-08-14T10:55:05.000Z</time>
      </trkpt>
      <trkpt lat="45.15933" lon="4.00283">
        <ele>874</ele>
        <time>2017-08-14T10:55:10.000Z</time>
      </trkpt>
      <trkpt lat="45.15932" lon="4.00281">
        <ele>874</ele>
        <time>2017-08-14T10:55:11.000Z</time>
      </trkpt>
      <trkpt lat="45.15933" lon="4.00248">
        <ele>876</ele>
        <time>2017-08-14T10:55:28.000Z</time>
      </trkpt>
      <trkpt lat="45.15934" lon="4.00247">
        <ele>876</ele>
        <time>2017-08-14T10:55:29.000Z</time>
      </trkpt>
      <trkpt lat="45.15934" lon="4.00214">
        <ele>873</ele>
        <time>2017-08-14T10:55:47.000Z</time>
      </trkpt>
      <trkpt lat="45.15933" lon="4.00212">
        <ele>872</ele>
        <time>2017-08-14T10:55:48.000Z</time>
      </trkpt>
      <trkpt lat="45.15938" lon="4.00179">
        <ele>853</ele>
        <time>2017-08-14T10:56:08.000Z</time>
      </trkpt>
      <trkpt lat="45.15937" lon="4.00177">
        <ele>852</ele>
        <time>2017-08-14T10:56:09.000Z</time>
      </trkpt>
      <trkpt lat="45.15933" lon="4.00065">
        <ele>847</ele>
        <time>2017-08-14T10:57:22.000Z</time>
      </trkpt>
      <trkpt lat="45.15934" lon="4.00064">
        <ele>846</ele>
        <time>2017-08-14T10:57:23.000Z</time>
      </trkpt>
      <trkpt lat="45.15957" lon="4.00037">
        <ele>841</ele>
        <time>2017-08-14T10:57:35.000Z</time>
      </trkpt>
      <trkpt lat="45.15958" lon="4.00034">
        <ele>843</ele>
        <time>2017-08-14T10:57:36.000Z</time>
      </trkpt>
      <trkpt lat="45.15977" lon="4.00015">
        <ele>870</ele>
        <time>2017-08-14T10:57:45.000Z</time>
      </trkpt>
      <trkpt lat="45.15979" lon="4.00014">
        <ele>872</ele>
        <time>2017-08-14T10:57:46.000Z</time>
      </trkpt>
      <trkpt lat="45.16029" lon="3.99922">
        <ele>840</ele>
        <time>2017-08-14T10:59:16.000Z</time>
      </trkpt>
      <trkpt lat="45.16034" lon="3.99923">
        <ele>841</ele>
        <time>2017-08-14T10:59:17.000Z</time>
      </trkpt>
      <trkpt lat="45.16058" lon="3.99926">
        <ele>847</ele>
        <time>2017-08-14T10:59:24.000Z</time>
      </trkpt>
      <trkpt lat="45.16061" lon="3.99927">
        <ele>847</ele>
        <time>2017-08-14T10:59:25.000Z</time>
      </trkpt>
      <trkpt lat="45.16085" lon="3.99925">
        <ele>849</ele>
        <time>2017-08-14T10:59:36.000Z</time>
      </trkpt>
      <trkpt lat="45.16087" lon="3.99925">
        <ele>849</ele>
        <time>2017-08-14T10:59:37.000Z</time>
      </trkpt>
      <trkpt lat="45.16111" lon="3.9992">
        <ele>848</ele>
        <time>2017-08-14T10:59:50.000Z</time>
      </trkpt>
      <trkpt lat="45.16113" lon="3.99919">
        <ele>848</ele>
        <time>2017-08-14T10:59:51.000Z</time>
      </trkpt>
      <trkpt lat="45.16134" lon="3.99908">
        <ele>847</ele>
        <time>2017-08-14T11:00:08.000Z</time>
      </trkpt>
      <trkpt lat="45.16136" lon="3.99907">
        <ele>847</ele>
        <time>2017-08-14T11:00:09.000Z</time>
      </trkpt>
      <trkpt lat="45.16158" lon="3.99898">
        <ele>842</ele>
        <time>2017-08-14T11:00:25.000Z</time>
      </trkpt>
      <trkpt lat="45.16159" lon="3.99898">
        <ele>842</ele>
        <time>2017-08-14T11:00:26.000Z</time>
      </trkpt>
      <trkpt lat="45.16181" lon="3.99889">
        <ele>837</ele>
        <time>2017-08-14T11:00:51.000Z</time>
      </trkpt>
      <trkpt lat="45.16182" lon="3.99887">
        <ele>838</ele>
        <time>2017-08-14T11:00:52.000Z</time>
      </trkpt>
      <trkpt lat="45.16241" lon="3.99643">
        <ele>787</ele>
        <time>2017-08-14T11:05:03.000Z</time>
      </trkpt>
      <trkpt lat="45.16243" lon="3.9964">
        <ele>787</ele>
        <time>2017-08-14T11:05:04.000Z</time>
      </trkpt>
      <trkpt lat="45.16256" lon="3.99613">
        <ele>789</ele>
        <time>2017-08-14T11:05:15.000Z</time>
      </trkpt>
      <trkpt lat="45.16255" lon="3.99586">
        <ele>785</ele>
        <time>2017-08-14T11:05:26.000Z</time>
      </trkpt>
      <trkpt lat="45.16264" lon="3.99487">
        <ele>804</ele>
        <time>2017-08-14T11:06:33.000Z</time>
      </trkpt>
      <trkpt lat="45.16268" lon="3.99486">
        <ele>805</ele>
        <time>2017-08-14T11:06:34.000Z</time>
      </trkpt>
      <trkpt lat="45.16304" lon="3.99472">
        <ele>820</ele>
        <time>2017-08-14T11:06:48.000Z</time>
      </trkpt>
      <trkpt lat="45.16305" lon="3.99469">
        <ele>821</ele>
        <time>2017-08-14T11:06:49.000Z</time>
      </trkpt>
      <trkpt lat="45.16323" lon="3.99449">
        <ele>823</ele>
        <time>2017-08-14T11:07:04.000Z</time>
      </trkpt>
      <trkpt lat="45.16323" lon="3.99448">
        <ele>822</ele>
        <time>2017-08-14T11:07:05.000Z</time>
      </trkpt>
      <trkpt lat="45.1636" lon="3.99358">
        <ele>805</ele>
        <time>2017-08-14T11:07:59.000Z</time>
      </trkpt>
      <trkpt lat="45.16361" lon="3.99355">
        <ele>808</ele>
        <time>2017-08-14T11:08:00.000Z</time>
      </trkpt>
      <trkpt lat="45.16366" lon="3.99323">
        <ele>824</ele>
        <time>2017-08-14T11:08:24.000Z</time>
      </trkpt>
      <trkpt lat="45.16367" lon="3.99321">
        <ele>823</ele>
        <time>2017-08-14T11:08:25.000Z</time>
      </trkpt>
      <trkpt lat="45.16379" lon="3.99294">
        <ele>798</ele>
        <time>2017-08-14T11:09:05.000Z</time>
      </trkpt>
      <trkpt lat="45.1638" lon="3.99292">
        <ele>798</ele>
        <time>2017-08-14T11:09:06.000Z</time>
      </trkpt>
      <trkpt lat="45.1638" lon="3.99231">
        <ele>788</ele>
        <time>2017-08-14T11:10:03.000Z</time>
      </trkpt>
      <trkpt lat="45.1638" lon="3.9923">
        <ele>788</ele>
        <time>2017-08-14T11:10:04.000Z</time>
      </trkpt>
      <trkpt lat="45.16382" lon="3.99197">
        <ele>806</ele>
        <time>2017-08-14T11:10:25.000Z</time>
      </trkpt>
      <trkpt lat="45.16381" lon="3.99195">
        <ele>806</ele>
        <time>2017-08-14T11:10:26.000Z</time>
      </trkpt>
      <trkpt lat="45.16425" lon="3.99083">
        <ele>799</ele>
        <time>2017-08-14T11:11:47.000Z</time>
      </trkpt>
      <trkpt lat="45.16424" lon="3.99081">
        <ele>799</ele>
        <time>2017-08-14T11:11:48.000Z</time>
      </trkpt>
      <trkpt lat="45.16407" lon="3.99061">
        <ele>797</ele>
        <time>2017-08-14T11:12:02.000Z</time>
      </trkpt>
      <trkpt lat="45.16407" lon="3.99061">
        <ele>797</ele>
        <time>2017-08-14T11:12:03.000Z</time>
      </trkpt>
      <trkpt lat="45.16403" lon="3.99029">
        <ele>801</ele>
        <time>2017-08-14T11:12:34.000Z</time>
      </trkpt>
      <trkpt lat="45.16404" lon="3.99027">
        <ele>800</ele>
        <time>2017-08-14T11:12:35.000Z</time>
      </trkpt>
      <trkpt lat="45.16409" lon="3.98985">
        <ele>784</ele>
        <time>2017-08-14T11:13:03.000Z</time>
      </trkpt>
      <trkpt lat="45.16408" lon="3.98986">
        <ele>784</ele>
        <time>2017-08-14T11:13:04.000Z</time>
      </trkpt>
      <trkpt lat="45.16417" lon="3.98952">
        <ele>788</ele>
        <time>2017-08-14T11:13:32.000Z</time>
      </trkpt>
      <trkpt lat="45.16418" lon="3.9895">
        <ele>789</ele>
        <time>2017-08-14T11:13:33.000Z</time>
      </trkpt>
      <trkpt lat="45.16417" lon="3.98918">
        <ele>802</ele>
        <time>2017-08-14T11:13:57.000Z</time>
      </trkpt>
      <trkpt lat="45.16417" lon="3.98917">
        <ele>801</ele>
        <time>2017-08-14T11:13:58.000Z</time>
      </trkpt>
      <trkpt lat="45.16406" lon="3.98888">
        <ele>765</ele>
        <time>2017-08-14T11:14:30.000Z</time>
      </trkpt>
      <trkpt lat="45.16406" lon="3.98886">
        <ele>765</ele>
        <time>2017-08-14T11:14:31.000Z</time>
      </trkpt>
      <trkpt lat="45.164" lon="3.98855">
        <ele>769</ele>
        <time>2017-08-14T11:14:51.000Z</time>
      </trkpt>
      <trkpt lat="45.164" lon="3.98853">
        <ele>769</ele>
        <time>2017-08-14T11:14:52.000Z</time>
      </trkpt>
      <trkpt lat="45.16402" lon="3.98821">
        <ele>779</ele>
        <time>2017-08-14T11:15:19.000Z</time>
      </trkpt>
      <trkpt lat="45.16402" lon="3.98821">
        <ele>779</ele>
        <time>2017-08-14T11:15:20.000Z</time>
      </trkpt>
      <trkpt lat="45.16399" lon="3.98788">
        <ele>780</ele>
        <time>2017-08-14T11:15:43.000Z</time>
      </trkpt>
      <trkpt lat="45.16399" lon="3.98787">
        <ele>780</ele>
        <time>2017-08-14T11:15:44.000Z</time>
      </trkpt>
      <trkpt lat="45.16399" lon="3.98752">
        <ele>784</ele>
        <time>2017-08-14T11:16:20.000Z</time>
      </trkpt>
      <trkpt lat="45.16389" lon="3.98741">
        <ele>784</ele>
        <time>2017-08-14T11:16:28.000Z</time>
      </trkpt>
      <trkpt lat="45.16371" lon="3.98721">
        <ele>756</ele>
        <time>2017-08-14T11:16:51.000Z</time>
      </trkpt>
      <trkpt lat="45.1637" lon="3.9872">
        <ele>756</ele>
        <time>2017-08-14T11:16:52.000Z</time>
      </trkpt>
      <trkpt lat="45.16376" lon="3.98709">
        <ele>799</ele>
        <time>2017-08-14T11:20:09.000Z</time>
      </trkpt>
      <trkpt lat="45.16367" lon="3.98703">
        <ele>785</ele>
        <time>2017-08-14T11:37:28.000Z</time>
      </trkpt>
      <trkpt lat="45.16449" lon="3.98666">
        <ele>826</ele>
        <time>2017-08-14T11:41:27.000Z</time>
      </trkpt>
      <trkpt lat="45.16452" lon="3.98679">
        <ele>825</ele>
        <time>2017-08-14T11:41:28.000Z</time>
      </trkpt>
      <trkpt lat="45.16459" lon="3.98711">
        <ele>824</ele>
        <time>2017-08-14T11:41:31.000Z</time>
      </trkpt>
      <trkpt lat="45.16462" lon="3.9872">
        <ele>824</ele>
        <time>2017-08-14T11:41:32.000Z</time>
      </trkpt>
      <trkpt lat="45.16469" lon="3.98755">
        <ele>821</ele>
        <time>2017-08-14T11:41:37.000Z</time>
      </trkpt>
      <trkpt lat="45.1647" lon="3.98761">
        <ele>820</ele>
        <time>2017-08-14T11:41:38.000Z</time>
      </trkpt>
      <trkpt lat="45.16478" lon="3.98796">
        <ele>814</ele>
        <time>2017-08-14T11:41:48.000Z</time>
      </trkpt>
      <trkpt lat="45.16478" lon="3.98798">
        <ele>813</ele>
        <time>2017-08-14T11:41:49.000Z</time>
      </trkpt>
      <trkpt lat="45.16502" lon="3.98801">
        <ele>770</ele>
        <time>2017-08-14T11:42:55.000Z</time>
      </trkpt>
      <trkpt lat="45.16502" lon="3.98801">
        <ele>770</ele>
        <time>2017-08-14T11:43:11.000Z</time>
      </trkpt>
      <trkpt lat="45.17048" lon="3.99023">
        <ele>863</ele>
        <time>2017-08-14T11:53:38.000Z</time>
      </trkpt>
      <trkpt lat="45.17055" lon="3.99015">
        <ele>860</ele>
        <time>2017-08-14T11:53:39.000Z</time>
      </trkpt>
      <trkpt lat="45.17235" lon="3.99538">
        <ele>862</ele>
        <time>2017-08-14T12:04:09.000Z</time>
      </trkpt>
      <trkpt lat="45.17235" lon="3.99538">
        <ele>864</ele>
        <time>2017-08-14T12:04:10.000Z</time>
      </trkpt>
      <trkpt lat="45.17236" lon="3.99539">
        <ele>870</ele>
        <time>2017-08-14T12:04:19.000Z</time>
      </trkpt>
      <trkpt lat="45.17226" lon="3.99496">
        <ele>928</ele>
        <time>2017-08-14T12:06:22.000Z</time>
      </trkpt>
      <trkpt lat="45.17226" lon="3.99495">
        <ele>928</ele>
        <time>2017-08-14T12:06:23.000Z</time>
      </trkpt>
      <trkpt lat="45.17231" lon="3.99528">
        <ele>913</ele>
        <time>2017-08-14T12:06:35.000Z</time>
      </trkpt>
      <trkpt lat="45.17231" lon="3.99529">
        <ele>913</ele>
        <time>2017-08-14T12:06:36.000Z</time>
      </trkpt>
      <trkpt lat="45.17708" lon="3.99944">
        <ele>926</ele>
        <time>2017-08-14T12:16:10.000Z</time>
      </trkpt>
      <trkpt lat="45.17709" lon="3.99943">
        <ele>924</ele>
        <time>2017-08-14T12:16:11.000Z</time>
      </trkpt>
      <trkpt lat="45.17738" lon="4.00146">
        <ele>925</ele>
        <time>2017-08-14T12:20:23.000Z</time>
      </trkpt>
      <trkpt lat="45.17739" lon="4.0015">
        <ele>928</ele>
        <time>2017-08-14T12:20:24.000Z</time>
      </trkpt>
      <trkpt lat="45.17742" lon="4.00183">
        <ele>941</ele>
        <time>2017-08-14T12:20:34.000Z</time>
      </trkpt>
      <trkpt lat="45.17744" lon="4.0019">
        <ele>941</ele>
        <time>2017-08-14T12:20:38.000Z</time>
      </trkpt>
      <trkpt lat="45.17756" lon="4.00218">
        <ele>955</ele>
        <time>2017-08-14T12:22:43.000Z</time>
      </trkpt>
      <trkpt lat="45.17757" lon="4.00223">
        <ele>954</ele>
        <time>2017-08-14T12:22:44.000Z</time>
      </trkpt>
      <trkpt lat="45.17765" lon="4.00255">
        <ele>948</ele>
        <time>2017-08-14T12:22:53.000Z</time>
      </trkpt>
      <trkpt lat="45.17766" lon="4.00257">
        <ele>948</ele>
        <time>2017-08-14T12:22:54.000Z</time>
      </trkpt>
      <trkpt lat="45.17773" lon="4.00316">
        <ele>959</ele>
        <time>2017-08-14T12:23:29.000Z</time>
      </trkpt>
      <trkpt lat="45.17773" lon="4.00319">
        <ele>960</ele>
        <time>2017-08-14T12:23:30.000Z</time>
      </trkpt>
      <trkpt lat="45.17759" lon="4.00348">
        <ele>956</ele>
        <time>2017-08-14T12:23:54.000Z</time>
      </trkpt>
      <trkpt lat="45.17759" lon="4.0035">
        <ele>955</ele>
        <time>2017-08-14T12:23:55.000Z</time>
      </trkpt>
      <trkpt lat="45.17747" lon="4.00378">
        <ele>944</ele>
        <time>2017-08-14T12:24:19.000Z</time>
      </trkpt>
      <trkpt lat="45.17747" lon="4.00379">
        <ele>945</ele>
        <time>2017-08-14T12:24:20.000Z</time>
      </trkpt>
      <trkpt lat="45.17758" lon="4.00421">
        <ele>956</ele>
        <time>2017-08-14T12:24:45.000Z</time>
      </trkpt>
      <trkpt lat="45.17759" lon="4.00422">
        <ele>957</ele>
        <time>2017-08-14T12:24:46.000Z</time>
      </trkpt>
      <trkpt lat="45.178" lon="4.00474">
        <ele>968</ele>
        <time>2017-08-14T12:25:30.000Z</time>
      </trkpt>
      <trkpt lat="45.17803" lon="4.0048">
        <ele>967</ele>
        <time>2017-08-14T12:25:33.000Z</time>
      </trkpt>
      <trkpt lat="45.17803" lon="4.00518">
        <ele>949</ele>
        <time>2017-08-14T12:26:01.000Z</time>
      </trkpt>
      <trkpt lat="45.17803" lon="4.00518">
        <ele>951</ele>
        <time>2017-08-14T12:26:02.000Z</time>
      </trkpt>
      <trkpt lat="45.17812" lon="4.00548">
        <ele>959</ele>
        <time>2017-08-14T12:26:45.000Z</time>
      </trkpt>
      <trkpt lat="45.17812" lon="4.0055">
        <ele>959</ele>
        <time>2017-08-14T12:26:46.000Z</time>
      </trkpt>
      <trkpt lat="45.17815" lon="4.00586">
        <ele>954</ele>
        <time>2017-08-14T12:27:18.000Z</time>
      </trkpt>
      <trkpt lat="45.17815" lon="4.00586">
        <ele>954</ele>
        <time>2017-08-14T12:27:35.000Z</time>
      </trkpt>
      <trkpt lat="45.1781" lon="4.00619">
        <ele>959</ele>
        <time>2017-08-14T12:27:40.000Z</time>
      </trkpt>
      <trkpt lat="45.1781" lon="4.00619">
        <ele>960</ele>
        <time>2017-08-14T12:27:41.000Z</time>
      </trkpt>
      <trkpt lat="45.17814" lon="4.00651">
        <ele>971</ele>
        <time>2017-08-14T12:28:12.000Z</time>
      </trkpt>
      <trkpt lat="45.17815" lon="4.00652">
        <ele>971</ele>
        <time>2017-08-14T12:28:13.000Z</time>
      </trkpt>
      <trkpt lat="45.17814" lon="4.00684">
        <ele>976</ele>
        <time>2017-08-14T12:28:44.000Z</time>
      </trkpt>
      <trkpt lat="45.17813" lon="4.00685">
        <ele>977</ele>
        <time>2017-08-14T12:28:45.000Z</time>
      </trkpt>
      <trkpt lat="45.1775" lon="4.00641">
        <ele>973</ele>
        <time>2017-08-14T12:30:45.000Z</time>
      </trkpt>
      <trkpt lat="45.1775" lon="4.00645">
        <ele>975</ele>
        <time>2017-08-14T12:30:46.000Z</time>
      </trkpt>
      <trkpt lat="45.17747" lon="4.00688">
        <ele>997</ele>
        <time>2017-08-14T12:31:15.000Z</time>
      </trkpt>
      <trkpt lat="45.1774" lon="4.00695">
        <ele>1003</ele>
        <time>2017-08-14T12:31:23.000Z</time>
      </trkpt>
      <trkpt lat="45.17728" lon="4.00758">
        <ele>1002</ele>
        <time>2017-08-14T12:32:23.000Z</time>
      </trkpt>
      <trkpt lat="45.17728" lon="4.00757">
        <ele>1002</ele>
        <time>2017-08-14T12:32:24.000Z</time>
      </trkpt>
      <trkpt lat="45.17707" lon="4.00746">
        <ele>1019</ele>
        <time>2017-08-14T12:32:58.000Z</time>
      </trkpt>
      <trkpt lat="45.17685" lon="4.00791">
        <ele>1007</ele>
        <time>2017-08-14T12:35:21.000Z</time>
      </trkpt>
      <trkpt lat="45.17685" lon="4.00791">
        <ele>1007</ele>
        <time>2017-08-14T12:35:22.000Z</time>
      </trkpt>
      <trkpt lat="45.17551" lon="4.0091">
        <ele>987</ele>
        <time>2017-08-14T12:42:58.000Z</time>
      </trkpt>
      <trkpt lat="45.17543" lon="4.00917">
        <ele>991</ele>
        <time>2017-08-14T12:42:59.000Z</time>
      </trkpt>
      <trkpt lat="45.17524" lon="4.00936">
        <ele>1001</ele>
        <time>2017-08-14T12:43:02.000Z</time>
      </trkpt>
      <trkpt lat="45.17519" lon="4.00941">
        <ele>1004</ele>
        <time>2017-08-14T12:43:03.000Z</time>
      </trkpt>
      <trkpt lat="45.17496" lon="4.00962">
        <ele>1012</ele>
        <time>2017-08-14T12:43:08.000Z</time>
      </trkpt>
      <trkpt lat="45.17493" lon="4.00966">
        <ele>1013</ele>
        <time>2017-08-14T12:43:09.000Z</time>
      </trkpt>
      <trkpt lat="45.17473" lon="4.00985">
        <ele>1020</ele>
        <time>2017-08-14T12:43:18.000Z</time>
      </trkpt>
      <trkpt lat="45.17471" lon="4.00987">
        <ele>1021</ele>
        <time>2017-08-14T12:43:19.000Z</time>
      </trkpt>
      <trkpt lat="45.17453" lon="4.01008">
        <ele>1027</ele>
        <time>2017-08-14T12:43:28.000Z</time>
      </trkpt>
      <trkpt lat="45.17451" lon="4.0101">
        <ele>1028</ele>
        <time>2017-08-14T12:43:29.000Z</time>
      </trkpt>
      <trkpt lat="45.17322" lon="4.01018">
        <ele>1042</ele>
        <time>2017-08-14T12:45:08.000Z</time>
      </trkpt>
      <trkpt lat="45.1732" lon="4.01017">
        <ele>1042</ele>
        <time>2017-08-14T12:45:09.000Z</time>
      </trkpt>
      <trkpt lat="45.17294" lon="4.01008">
        <ele>1027</ele>
        <time>2017-08-14T12:45:39.000Z</time>
      </trkpt>
      <trkpt lat="45.17293" lon="4.01007">
        <ele>1027</ele>
        <time>2017-08-14T12:45:40.000Z</time>
      </trkpt>
      <trkpt lat="45.17268" lon="4.01007">
        <ele>1012</ele>
        <time>2017-08-14T12:46:04.000Z</time>
      </trkpt>
      <trkpt lat="45.17267" lon="4.01004">
        <ele>1011</ele>
        <time>2017-08-14T12:46:05.000Z</time>
      </trkpt>
      <trkpt lat="45.17257" lon="4.01032">
        <ele>1015</ele>
        <time>2017-08-14T12:48:35.000Z</time>
      </trkpt>
      <trkpt lat="45.17257" lon="4.01033">
        <ele>1016</ele>
        <time>2017-08-14T12:48:36.000Z</time>
      </trkpt>
      <trkpt lat="45.17257" lon="4.01067">
        <ele>1032</ele>
        <time>2017-08-14T12:49:15.000Z</time>
      </trkpt>
      <trkpt lat="45.17257" lon="4.01069">
        <ele>1032</ele>
        <time>2017-08-14T12:49:16.000Z</time>
      </trkpt>
      <trkpt lat="45.17251" lon="4.01102">
        <ele>1025</ele>
        <time>2017-08-14T12:49:38.000Z</time>
      </trkpt>
      <trkpt lat="45.1725" lon="4.01104">
        <ele>1025</ele>
        <time>2017-08-14T12:49:39.000Z</time>
      </trkpt>
      <trkpt lat="45.17237" lon="4.0113">
        <ele>1020</ele>
        <time>2017-08-14T12:49:58.000Z</time>
      </trkpt>
      <trkpt lat="45.17237" lon="4.0113">
        <ele>1020</ele>
        <time>2017-08-14T12:49:59.000Z</time>
      </trkpt>
      <trkpt lat="45.17234" lon="4.01181">
        <ele>1020</ele>
        <time>2017-08-14T12:50:36.000Z</time>
      </trkpt>
      <trkpt lat="45.17234" lon="4.01182">
        <ele>1019</ele>
        <time>2017-08-14T12:50:37.000Z</time>
      </trkpt>
      <trkpt lat="45.17255" lon="4.01171">
        <ele>992</ele>
        <time>2017-08-14T12:50:54.000Z</time>
      </trkpt>
      <trkpt lat="45.17233" lon="4.01246">
        <ele>987</ele>
        <time>2017-08-14T12:52:58.000Z</time>
      </trkpt>
      <trkpt lat="45.17231" lon="4.01246">
        <ele>987</ele>
        <time>2017-08-14T12:52:59.000Z</time>
      </trkpt>
      <trkpt lat="45.17216" lon="4.01274">
        <ele>984</ele>
        <time>2017-08-14T12:53:30.000Z</time>
      </trkpt>
      <trkpt lat="45.17216" lon="4.01276">
        <ele>984</ele>
        <time>2017-08-14T12:53:31.000Z</time>
      </trkpt>
      <trkpt lat="45.17213" lon="4.01309">
        <ele>974</ele>
        <time>2017-08-14T12:53:55.000Z</time>
      </trkpt>
      <trkpt lat="45.17213" lon="4.0131">
        <ele>973</ele>
        <time>2017-08-14T12:53:56.000Z</time>
      </trkpt>
      <trkpt lat="45.1722" lon="4.01342">
        <ele>975</ele>
        <time>2017-08-14T12:54:15.000Z</time>
      </trkpt>
      <trkpt lat="45.17221" lon="4.01343">
        <ele>975</ele>
        <time>2017-08-14T12:54:16.000Z</time>
      </trkpt>
      <trkpt lat="45.17226" lon="4.01374">
        <ele>977</ele>
        <time>2017-08-14T12:54:37.000Z</time>
      </trkpt>
      <trkpt lat="45.17227" lon="4.01374">
        <ele>976</ele>
        <time>2017-08-14T12:54:38.000Z</time>
      </trkpt>
      <trkpt lat="45.17231" lon="4.01406">
        <ele>977</ele>
        <time>2017-08-14T12:55:10.000Z</time>
      </trkpt>
      <trkpt lat="45.17231" lon="4.01408">
        <ele>977</ele>
        <time>2017-08-14T12:55:11.000Z</time>
      </trkpt>
      <trkpt lat="45.17237" lon="4.01439">
        <ele>973</ele>
        <time>2017-08-14T12:55:31.000Z</time>
      </trkpt>
      <trkpt lat="45.17237" lon="4.01441">
        <ele>973</ele>
        <time>2017-08-14T12:55:32.000Z</time>
      </trkpt>
      <trkpt lat="45.17232" lon="4.01474">
        <ele>976</ele>
        <time>2017-08-14T12:55:51.000Z</time>
      </trkpt>
      <trkpt lat="45.1723" lon="4.01475">
        <ele>976</ele>
        <time>2017-08-14T12:55:54.000Z</time>
      </trkpt>
      <trkpt lat="45.1721" lon="4.01488">
        <ele>965</ele>
        <time>2017-08-14T12:56:12.000Z</time>
      </trkpt>
      <trkpt lat="45.17208" lon="4.01489">
        <ele>964</ele>
        <time>2017-08-14T12:56:13.000Z</time>
      </trkpt>
      <trkpt lat="45.17192" lon="4.01512">
        <ele>954</ele>
        <time>2017-08-14T12:56:35.000Z</time>
      </trkpt>
      <trkpt lat="45.17192" lon="4.01513">
        <ele>954</ele>
        <time>2017-08-14T12:56:36.000Z</time>
      </trkpt>
      <trkpt lat="45.17173" lon="4.01533">
        <ele>951</ele>
        <time>2017-08-14T12:56:57.000Z</time>
      </trkpt>
      <trkpt lat="45.17172" lon="4.01533">
        <ele>950</ele>
        <time>2017-08-14T12:56:58.000Z</time>
      </trkpt>
      <trkpt lat="45.1715" lon="4.01545">
        <ele>954</ele>
        <time>2017-08-14T12:57:28.000Z</time>
      </trkpt>
      <trkpt lat="45.17148" lon="4.01547">
        <ele>954</ele>
        <time>2017-08-14T12:57:31.000Z</time>
      </trkpt>
      <trkpt lat="45.17124" lon="4.01569">
        <ele>952</ele>
        <time>2017-08-14T12:58:11.000Z</time>
      </trkpt>
      <trkpt lat="45.17124" lon="4.0157">
        <ele>952</ele>
        <time>2017-08-14T12:58:12.000Z</time>
      </trkpt>
      <trkpt lat="45.17118" lon="4.01602">
        <ele>940</ele>
        <time>2017-08-14T12:58:31.000Z</time>
      </trkpt>
      <trkpt lat="45.17117" lon="4.01603">
        <ele>940</ele>
        <time>2017-08-14T12:58:32.000Z</time>
      </trkpt>
      <trkpt lat="45.17103" lon="4.01628">
        <ele>942</ele>
        <time>2017-08-14T12:58:49.000Z</time>
      </trkpt>
      <trkpt lat="45.17102" lon="4.01633">
        <ele>943</ele>
        <time>2017-08-14T12:58:53.000Z</time>
      </trkpt>
      <trkpt lat="45.17097" lon="4.01664">
        <ele>931</ele>
        <time>2017-08-14T12:59:12.000Z</time>
      </trkpt>
      <trkpt lat="45.17096" lon="4.01667">
        <ele>931</ele>
        <time>2017-08-14T12:59:13.000Z</time>
      </trkpt>
      <trkpt lat="45.17074" lon="4.01675">
        <ele>932</ele>
        <time>2017-08-14T12:59:50.000Z</time>
      </trkpt>
      <trkpt lat="45.17073" lon="4.01674">
        <ele>932</ele>
        <time>2017-08-14T12:59:51.000Z</time>
      </trkpt>
      <trkpt lat="45.17051" lon="4.01665">
        <ele>930</ele>
        <time>2017-08-14T13:00:10.000Z</time>
      </trkpt>
      <trkpt lat="45.1705" lon="4.01666">
        <ele>930</ele>
        <time>2017-08-14T13:00:11.000Z</time>
      </trkpt>
      <trkpt lat="45.17032" lon="4.01686">
        <ele>926</ele>
        <time>2017-08-14T13:00:30.000Z</time>
      </trkpt>
      <trkpt lat="45.17031" lon="4.01688">
        <ele>926</ele>
        <time>2017-08-14T13:00:31.000Z</time>
      </trkpt>
      <trkpt lat="45.17013" lon="4.01708">
        <ele>925</ele>
        <time>2017-08-14T13:00:50.000Z</time>
      </trkpt>
      <trkpt lat="45.17011" lon="4.01709">
        <ele>925</ele>
        <time>2017-08-14T13:00:51.000Z</time>
      </trkpt>
      <trkpt lat="45.16985" lon="4.01723">
        <ele>917</ele>
        <time>2017-08-14T13:01:17.000Z</time>
      </trkpt>
      <trkpt lat="45.16983" lon="4.01721">
        <ele>917</ele>
        <time>2017-08-14T13:01:18.000Z</time>
      </trkpt>
      <trkpt lat="45.16956" lon="4.01718">
        <ele>907</ele>
        <time>2017-08-14T13:01:54.000Z</time>
      </trkpt>
      <trkpt lat="45.16954" lon="4.01717">
        <ele>908</ele>
        <time>2017-08-14T13:01:55.000Z</time>
      </trkpt>
      <trkpt lat="45.16935" lon="4.01699">
        <ele>916</ele>
        <time>2017-08-14T13:02:05.000Z</time>
      </trkpt>
      <trkpt lat="45.16933" lon="4.01698">
        <ele>916</ele>
        <time>2017-08-14T13:02:06.000Z</time>
      </trkpt>
      <trkpt lat="45.16911" lon="4.0169">
        <ele>913</ele>
        <time>2017-08-14T13:02:25.000Z</time>
      </trkpt>
      <trkpt lat="45.1691" lon="4.0169">
        <ele>911</ele>
        <time>2017-08-14T13:02:26.000Z</time>
      </trkpt>
      <trkpt lat="45.16829" lon="4.01755">
        <ele>893</ele>
        <time>2017-08-14T13:03:15.000Z</time>
      </trkpt>
      <trkpt lat="45.1683" lon="4.01753">
        <ele>895</ele>
        <time>2017-08-14T13:03:16.000Z</time>
      </trkpt>
      <trkpt lat="45.16798" lon="4.01777">
        <ele>904</ele>
        <time>2017-08-14T13:04:16.000Z</time>
      </trkpt>
      <trkpt lat="45.16796" lon="4.01778">
        <ele>903</ele>
        <time>2017-08-14T13:04:17.000Z</time>
      </trkpt>
      <trkpt lat="45.1678" lon="4.018">
        <ele>893</ele>
        <time>2017-08-14T13:04:32.000Z</time>
      </trkpt>
      <trkpt lat="45.16776" lon="4.01803">
        <ele>893</ele>
        <time>2017-08-14T13:04:35.000Z</time>
      </trkpt>
      <trkpt lat="45.16755" lon="4.01793">
        <ele>899</ele>
        <time>2017-08-14T13:04:48.000Z</time>
      </trkpt>
      <trkpt lat="45.16753" lon="4.01794">
        <ele>899</ele>
        <time>2017-08-14T13:04:49.000Z</time>
      </trkpt>
      <trkpt lat="45.16729" lon="4.01796">
        <ele>905</ele>
        <time>2017-08-14T13:05:08.000Z</time>
      </trkpt>
      <trkpt lat="45.16728" lon="4.01796">
        <ele>904</ele>
        <time>2017-08-14T13:05:09.000Z</time>
      </trkpt>
      <trkpt lat="45.16705" lon="4.01792">
        <ele>906</ele>
        <time>2017-08-14T13:05:31.000Z</time>
      </trkpt>
      <trkpt lat="45.16703" lon="4.01788">
        <ele>912</ele>
        <time>2017-08-14T13:05:34.000Z</time>
      </trkpt>
      <trkpt lat="45.16685" lon="4.01811">
        <ele>914</ele>
        <time>2017-08-14T13:05:57.000Z</time>
      </trkpt>
      <trkpt lat="45.16684" lon="4.01814">
        <ele>912</ele>
        <time>2017-08-14T13:05:58.000Z</time>
      </trkpt>
      <trkpt lat="45.16663" lon="4.01826">
        <ele>897</ele>
        <time>2017-08-14T13:06:17.000Z</time>
      </trkpt>
      <trkpt lat="45.16661" lon="4.01826">
        <ele>897</ele>
        <time>2017-08-14T13:06:18.000Z</time>
      </trkpt>
      <trkpt lat="45.16637" lon="4.0183">
        <ele>897</ele>
        <time>2017-08-14T13:06:35.000Z</time>
      </trkpt>
      <trkpt lat="45.16632" lon="4.01828">
        <ele>896</ele>
        <time>2017-08-14T13:06:38.000Z</time>
      </trkpt>
      <trkpt lat="45.16581" lon="4.01853">
        <ele>894</ele>
        <time>2017-08-14T13:07:58.000Z</time>
      </trkpt>
      <trkpt lat="45.16578" lon="4.01852">
        <ele>894</ele>
        <time>2017-08-14T13:07:59.000Z</time>
      </trkpt>
      <trkpt lat="45.16555" lon="4.01853">
        <ele>895</ele>
        <time>2017-08-14T13:08:14.000Z</time>
      </trkpt>
      <trkpt lat="45.16551" lon="4.01856">
        <ele>895</ele>
        <time>2017-08-14T13:08:17.000Z</time>
      </trkpt>
      <trkpt lat="45.16531" lon="4.0187">
        <ele>897</ele>
        <time>2017-08-14T13:08:34.000Z</time>
      </trkpt>
      <trkpt lat="45.16529" lon="4.0187">
        <ele>897</ele>
        <time>2017-08-14T13:08:35.000Z</time>
      </trkpt>
      <trkpt lat="45.16506" lon="4.01867">
        <ele>896</ele>
        <time>2017-08-14T13:08:52.000Z</time>
      </trkpt>
      <trkpt lat="45.16504" lon="4.01869">
        <ele>896</ele>
        <time>2017-08-14T13:08:53.000Z</time>
      </trkpt>
      <trkpt lat="45.16482" lon="4.01883">
        <ele>896</ele>
        <time>2017-08-14T13:09:12.000Z</time>
      </trkpt>
      <trkpt lat="45.16481" lon="4.01883">
        <ele>895</ele>
        <time>2017-08-14T13:09:13.000Z</time>
      </trkpt>
      <trkpt lat="45.16445" lon="4.01883">
        <ele>900</ele>
        <time>2017-08-14T13:09:38.000Z</time>
      </trkpt>
      <trkpt lat="45.16443" lon="4.01885">
        <ele>901</ele>
        <time>2017-08-14T13:09:39.000Z</time>
      </trkpt>
      <trkpt lat="45.16419" lon="4.01897">
        <ele>896</ele>
        <time>2017-08-14T13:10:00.000Z</time>
      </trkpt>
      <trkpt lat="45.1642" lon="4.01896">
        <ele>895</ele>
        <time>2017-08-14T13:10:01.000Z</time>
      </trkpt>
      <trkpt lat="45.16403" lon="4.01873">
        <ele>899</ele>
        <time>2017-08-14T13:10:43.000Z</time>
      </trkpt>
      <trkpt lat="45.16401" lon="4.01873">
        <ele>900</ele>
        <time>2017-08-14T13:10:44.000Z</time>
      </trkpt>
      <trkpt lat="45.16362" lon="4.01863">
        <ele>890</ele>
        <time>2017-08-14T13:13:39.000Z</time>
      </trkpt>
      <trkpt lat="45.16362" lon="4.01863">
        <ele>891</ele>
        <time>2017-08-14T13:13:40.000Z</time>
      </trkpt>
      <trkpt lat="45.16338" lon="4.01861">
        <ele>902</ele>
        <time>2017-08-14T13:14:20.000Z</time>
      </trkpt>
      <trkpt lat="45.16337" lon="4.01861">
        <ele>902</ele>
        <time>2017-08-14T13:14:21.000Z</time>
      </trkpt>
      <trkpt lat="45.16289" lon="4.01818">
        <ele>897</ele>
        <time>2017-08-14T13:15:12.000Z</time>
      </trkpt>
      <trkpt lat="45.1629" lon="4.01818">
        <ele>897</ele>
        <time>2017-08-14T13:15:13.000Z</time>
      </trkpt>
      <trkpt lat="45.16273" lon="4.01794">
        <ele>898</ele>
        <time>2017-08-14T13:15:38.000Z</time>
      </trkpt>
      <trkpt lat="45.16272" lon="4.01793">
        <ele>898</ele>
        <time>2017-08-14T13:15:39.000Z</time>
      </trkpt>
      <trkpt lat="45.16227" lon="4.01772">
        <ele>895</ele>
        <time>2017-08-14T13:16:35.000Z</time>
      </trkpt>
      <trkpt lat="45.16227" lon="4.01774">
        <ele>894</ele>
        <time>2017-08-14T13:16:36.000Z</time>
      </trkpt>
      <trkpt lat="45.16209" lon="4.01793">
        <ele>895</ele>
        <time>2017-08-14T13:17:00.000Z</time>
      </trkpt>
      <trkpt lat="45.16208" lon="4.01794">
        <ele>896</ele>
        <time>2017-08-14T13:17:01.000Z</time>
      </trkpt>
      <trkpt lat="45.16096" lon="4.01889">
        <ele>935</ele>
        <time>2017-08-14T13:19:52.000Z</time>
      </trkpt>
      <trkpt lat="45.16099" lon="4.0189">
        <ele>935</ele>
        <time>2017-08-14T13:19:53.000Z</time>
      </trkpt>
      <trkpt lat="45.16164" lon="4.01582">
        <ele>899</ele>
        <time>2017-08-14T13:22:41.000Z</time>
      </trkpt>
      <trkpt lat="45.16164" lon="4.01582">
        <ele>899</ele>
        <time>2017-08-14T13:22:42.000Z</time>
      </trkpt>
      <trkpt lat="45.16149" lon="4.01626">
        <ele>906</ele>
        <time>2017-08-14T13:22:43.000Z</time>
      </trkpt>
      <trkpt lat="45.16143" lon="4.01646">
        <ele>908</ele>
        <time>2017-08-14T13:22:44.000Z</time>
      </trkpt>
      <trkpt lat="45.16137" lon="4.01664">
        <ele>911</ele>
        <time>2017-08-14T13:22:45.000Z</time>
      </trkpt>
      <trkpt lat="45.16131" lon="4.01684">
        <ele>914</ele>
        <time>2017-08-14T13:22:46.000Z</time>
      </trkpt>
      <trkpt lat="45.16126" lon="4.01699">
        <ele>916</ele>
        <time>2017-08-14T13:22:47.000Z</time>
      </trkpt>
      <trkpt lat="45.16122" lon="4.01714">
        <ele>918</ele>
        <time>2017-08-14T13:22:48.000Z</time>
      </trkpt>
      <trkpt lat="45.1611" lon="4.01751">
        <ele>924</ele>
        <time>2017-08-14T13:22:51.000Z</time>
      </trkpt>
      <trkpt lat="45.16107" lon="4.01761">
        <ele>926</ele>
        <time>2017-08-14T13:22:52.000Z</time>
      </trkpt>
      <trkpt lat="45.16096" lon="4.01794">
        <ele>931</ele>
        <time>2017-08-14T13:22:56.000Z</time>
      </trkpt>
      <trkpt lat="45.16095" lon="4.01801">
        <ele>932</ele>
        <time>2017-08-14T13:22:57.000Z</time>
      </trkpt>
      <trkpt lat="45.16085" lon="4.01832">
        <ele>936</ele>
        <time>2017-08-14T13:23:03.000Z</time>
      </trkpt>
      <trkpt lat="45.16084" lon="4.01835">
        <ele>937</ele>
        <time>2017-08-14T13:23:04.000Z</time>
      </trkpt>
      <trkpt lat="45.16076" lon="4.01865">
        <ele>944</ele>
        <time>2017-08-14T13:23:20.000Z</time>
      </trkpt>
      <trkpt lat="45.16076" lon="4.01865">
        <ele>944</ele>
        <time>2017-08-14T13:23:21.000Z</time>
      </trkpt>
      <trkpt lat="45.16054" lon="4.01877">
        <ele>944</ele>
        <time>2017-08-14T13:24:39.000Z</time>
      </trkpt>
      <trkpt lat="45.16053" lon="4.01877">
        <ele>944</ele>
        <time>2017-08-14T13:24:40.000Z</time>
      </trkpt>
      <trkpt lat="45.16028" lon="4.01898">
        <ele>939</ele>
        <time>2017-08-14T13:25:16.000Z</time>
      </trkpt>
      <trkpt lat="45.16027" lon="4.01897">
        <ele>939</ele>
        <time>2017-08-14T13:25:17.000Z</time>
      </trkpt>
      <trkpt lat="45.16017" lon="4.01868">
        <ele>951</ele>
        <time>2017-08-14T13:29:16.000Z</time>
      </trkpt>
      <trkpt lat="45.16017" lon="4.01867">
        <ele>949</ele>
        <time>2017-08-14T13:29:17.000Z</time>
      </trkpt>
      <trkpt lat="45.15995" lon="4.01879">
        <ele>935</ele>
        <time>2017-08-14T13:29:57.000Z</time>
      </trkpt>
      <trkpt lat="45.15984" lon="4.01894">
        <ele>934</ele>
        <time>2017-08-14T13:30:06.000Z</time>
      </trkpt>
      <trkpt lat="45.15977" lon="4.01906">
        <ele>935</ele>
        <time>2017-08-14T13:30:13.000Z</time>
      </trkpt>
      <trkpt lat="45.15977" lon="4.01939">
        <ele>928</ele>
        <time>2017-08-14T13:31:14.000Z</time>
      </trkpt>
      <trkpt lat="45.15977" lon="4.01939">
        <ele>927</ele>
        <time>2017-08-14T13:31:15.000Z</time>
      </trkpt>
      <trkpt lat="45.15959" lon="4.01921">
        <ele>930</ele>
        <time>2017-08-14T13:31:56.000Z</time>
      </trkpt>
      <trkpt lat="45.15958" lon="4.01921">
        <ele>930</ele>
        <time>2017-08-14T13:31:57.000Z</time>
      </trkpt>
      <trkpt lat="45.15938" lon="4.01904">
        <ele>920</ele>
        <time>2017-08-14T13:32:20.000Z</time>
      </trkpt>
      <trkpt lat="45.15937" lon="4.01903">
        <ele>920</ele>
        <time>2017-08-14T13:32:21.000Z</time>
      </trkpt>
      <trkpt lat="45.15918" lon="4.01885">
        <ele>920</ele>
        <time>2017-08-14T13:32:43.000Z</time>
      </trkpt>
      <trkpt lat="45.15917" lon="4.01884">
        <ele>920</ele>
        <time>2017-08-14T13:32:44.000Z</time>
      </trkpt>
      <trkpt lat="45.15898" lon="4.01867">
        <ele>911</ele>
        <time>2017-08-14T13:33:05.000Z</time>
      </trkpt>
      <trkpt lat="45.15897" lon="4.01865">
        <ele>911</ele>
        <time>2017-08-14T13:33:06.000Z</time>
      </trkpt>
      <trkpt lat="45.15875" lon="4.0185">
        <ele>908</ele>
        <time>2017-08-14T13:33:25.000Z</time>
      </trkpt>
      <trkpt lat="45.15874" lon="4.0185">
        <ele>908</ele>
        <time>2017-08-14T13:33:26.000Z</time>
      </trkpt>
      <trkpt lat="45.15854" lon="4.01831">
        <ele>905</ele>
        <time>2017-08-14T13:33:51.000Z</time>
      </trkpt>
      <trkpt lat="45.15853" lon="4.01829">
        <ele>905</ele>
        <time>2017-08-14T13:33:52.000Z</time>
      </trkpt>
      <trkpt lat="45.15836" lon="4.01807">
        <ele>911</ele>
        <time>2017-08-14T13:34:32.000Z</time>
      </trkpt>
      <trkpt lat="45.15835" lon="4.01807">
        <ele>911</ele>
        <time>2017-08-14T13:34:33.000Z</time>
      </trkpt>
      <trkpt lat="45.15814" lon="4.01793">
        <ele>912</ele>
        <time>2017-08-14T13:34:54.000Z</time>
      </trkpt>
      <trkpt lat="45.15813" lon="4.01792">
        <ele>911</ele>
        <time>2017-08-14T13:34:55.000Z</time>
      </trkpt>
      <trkpt lat="45.15793" lon="4.01779">
        <ele>906</ele>
        <time>2017-08-14T13:35:23.000Z</time>
      </trkpt>
      <trkpt lat="45.15791" lon="4.01778">
        <ele>907</ele>
        <time>2017-08-14T13:35:24.000Z</time>
      </trkpt>
      <trkpt lat="45.1577" lon="4.01764">
        <ele>898</ele>
        <time>2017-08-14T13:35:54.000Z</time>
      </trkpt>
      <trkpt lat="45.1577" lon="4.01765">
        <ele>898</ele>
        <time>2017-08-14T13:35:55.000Z</time>
      </trkpt>
      <trkpt lat="45.15766" lon="4.01797">
        <ele>899</ele>
        <time>2017-08-14T13:36:24.000Z</time>
      </trkpt>
      <trkpt lat="45.15766" lon="4.01799">
        <ele>899</ele>
        <time>2017-08-14T13:36:25.000Z</time>
      </trkpt>
      <trkpt lat="45.15763" lon="4.01832">
        <ele>905</ele>
        <time>2017-08-14T13:36:45.000Z</time>
      </trkpt>
      <trkpt lat="45.15763" lon="4.01833">
        <ele>905</ele>
        <time>2017-08-14T13:36:46.000Z</time>
      </trkpt>
      <trkpt lat="45.15756" lon="4.01865">
        <ele>905</ele>
        <time>2017-08-14T13:37:07.000Z</time>
      </trkpt>
      <trkpt lat="45.15756" lon="4.01867">
        <ele>905</ele>
        <time>2017-08-14T13:37:08.000Z</time>
      </trkpt>
      <trkpt lat="45.15742" lon="4.01893">
        <ele>904</ele>
        <time>2017-08-14T13:38:32.000Z</time>
      </trkpt>
      <trkpt lat="45.15741" lon="4.01894">
        <ele>905</ele>
        <time>2017-08-14T13:38:33.000Z</time>
      </trkpt>
      <trkpt lat="45.15731" lon="4.01924">
        <ele>907</ele>
        <time>2017-08-14T13:38:50.000Z</time>
      </trkpt>
      <trkpt lat="45.15731" lon="4.01926">
        <ele>906</ele>
        <time>2017-08-14T13:38:51.000Z</time>
      </trkpt>
      <trkpt lat="45.15727" lon="4.01959">
        <ele>909</ele>
        <time>2017-08-14T13:39:10.000Z</time>
      </trkpt>
      <trkpt lat="45.15727" lon="4.0196">
        <ele>909</ele>
        <time>2017-08-14T13:39:11.000Z</time>
      </trkpt>
      <trkpt lat="45.15717" lon="4.0199">
        <ele>914</ele>
        <time>2017-08-14T13:39:32.000Z</time>
      </trkpt>
      <trkpt lat="45.15716" lon="4.01997">
        <ele>911</ele>
        <time>2017-08-14T13:39:36.000Z</time>
      </trkpt>
      <trkpt lat="45.15693" lon="4.01993">
        <ele>913</ele>
        <time>2017-08-14T13:40:03.000Z</time>
      </trkpt>
      <trkpt lat="45.15693" lon="4.01991">
        <ele>913</ele>
        <time>2017-08-14T13:40:04.000Z</time>
      </trkpt>
      <trkpt lat="45.15683" lon="4.01962">
        <ele>912</ele>
        <time>2017-08-14T13:40:21.000Z</time>
      </trkpt>
      <trkpt lat="45.15682" lon="4.0196">
        <ele>912</ele>
        <time>2017-08-14T13:40:22.000Z</time>
      </trkpt>
      <trkpt lat="45.1567" lon="4.01932">
        <ele>913</ele>
        <time>2017-08-14T13:40:40.000Z</time>
      </trkpt>
      <trkpt lat="45.15669" lon="4.01931">
        <ele>912</ele>
        <time>2017-08-14T13:40:41.000Z</time>
      </trkpt>
      <trkpt lat="45.15657" lon="4.01902">
        <ele>912</ele>
        <time>2017-08-14T13:40:59.000Z</time>
      </trkpt>
      <trkpt lat="45.15656" lon="4.019">
        <ele>912</ele>
        <time>2017-08-14T13:41:00.000Z</time>
      </trkpt>
      <trkpt lat="45.15643" lon="4.01874">
        <ele>915</ele>
        <time>2017-08-14T13:41:18.000Z</time>
      </trkpt>
      <trkpt lat="45.15643" lon="4.01872">
        <ele>915</ele>
        <time>2017-08-14T13:41:19.000Z</time>
      </trkpt>
      <trkpt lat="45.15629" lon="4.01846">
        <ele>917</ele>
        <time>2017-08-14T13:41:38.000Z</time>
      </trkpt>
      <trkpt lat="45.15628" lon="4.01844">
        <ele>916</ele>
        <time>2017-08-14T13:41:39.000Z</time>
      </trkpt>
      <trkpt lat="45.15611" lon="4.01817">
        <ele>922</ele>
        <time>2017-08-14T13:41:58.000Z</time>
      </trkpt>
      <trkpt lat="45.15609" lon="4.01814">
        <ele>923</ele>
        <time>2017-08-14T13:42:00.000Z</time>
      </trkpt>
      <trkpt lat="45.15598" lon="4.01786">
        <ele>918</ele>
        <time>2017-08-14T13:42:18.000Z</time>
      </trkpt>
      <trkpt lat="45.15597" lon="4.01785">
        <ele>918</ele>
        <time>2017-08-14T13:42:19.000Z</time>
      </trkpt>
      <trkpt lat="45.15585" lon="4.01757">
        <ele>914</ele>
        <time>2017-08-14T13:42:37.000Z</time>
      </trkpt>
      <trkpt lat="45.15584" lon="4.01756">
        <ele>914</ele>
        <time>2017-08-14T13:42:38.000Z</time>
      </trkpt>
      <trkpt lat="45.15573" lon="4.01728">
        <ele>917</ele>
        <time>2017-08-14T13:42:54.000Z</time>
      </trkpt>
      <trkpt lat="45.15572" lon="4.01726">
        <ele>918</ele>
        <time>2017-08-14T13:42:55.000Z</time>
      </trkpt>
      <trkpt lat="45.15555" lon="4.01701">
        <ele>916</ele>
        <time>2017-08-14T13:43:13.000Z</time>
      </trkpt>
      <trkpt lat="45.15554" lon="4.017">
        <ele>916</ele>
        <time>2017-08-14T13:43:14.000Z</time>
      </trkpt>
      <trkpt lat="45.1554" lon="4.01674">
        <ele>915</ele>
        <time>2017-08-14T13:43:33.000Z</time>
      </trkpt>
      <trkpt lat="45.15539" lon="4.01672">
        <ele>915</ele>
        <time>2017-08-14T13:43:34.000Z</time>
      </trkpt>
      <trkpt lat="45.15523" lon="4.01648">
        <ele>915</ele>
        <time>2017-08-14T13:43:51.000Z</time>
      </trkpt>
      <trkpt lat="45.15515" lon="4.01638">
        <ele>916</ele>
        <time>2017-08-14T13:43:57.000Z</time>
      </trkpt>
      <trkpt lat="45.155" lon="4.01614">
        <ele>919</ele>
        <time>2017-08-14T13:44:13.000Z</time>
      </trkpt>
      <trkpt lat="45.15499" lon="4.01614">
        <ele>919</ele>
        <time>2017-08-14T13:44:14.000Z</time>
      </trkpt>
      <trkpt lat="45.15484" lon="4.01576">
        <ele>906</ele>
        <time>2017-08-14T13:44:43.000Z</time>
      </trkpt>
      <trkpt lat="45.15482" lon="4.01575">
        <ele>907</ele>
        <time>2017-08-14T13:44:44.000Z</time>
      </trkpt>
      <trkpt lat="45.15465" lon="4.01554">
        <ele>914</ele>
        <time>2017-08-14T13:44:59.000Z</time>
      </trkpt>
      <trkpt lat="45.15464" lon="4.01553">
        <ele>914</ele>
        <time>2017-08-14T13:45:00.000Z</time>
      </trkpt>
      <trkpt lat="45.15447" lon="4.01531">
        <ele>911</ele>
        <time>2017-08-14T13:45:19.000Z</time>
      </trkpt>
      <trkpt lat="45.15446" lon="4.0153">
        <ele>911</ele>
        <time>2017-08-14T13:45:20.000Z</time>
      </trkpt>
      <trkpt lat="45.15428" lon="4.01509">
        <ele>913</ele>
        <time>2017-08-14T13:45:40.000Z</time>
      </trkpt>
      <trkpt lat="45.15425" lon="4.01505">
        <ele>913</ele>
        <time>2017-08-14T13:45:43.000Z</time>
      </trkpt>
      <trkpt lat="45.15412" lon="4.01478">
        <ele>915</ele>
        <time>2017-08-14T13:46:00.000Z</time>
      </trkpt>
      <trkpt lat="45.15411" lon="4.01477">
        <ele>915</ele>
        <time>2017-08-14T13:46:01.000Z</time>
      </trkpt>
      <trkpt lat="45.15395" lon="4.01453">
        <ele>912</ele>
        <time>2017-08-14T13:46:19.000Z</time>
      </trkpt>
      <trkpt lat="45.15395" lon="4.01452">
        <ele>911</ele>
        <time>2017-08-14T13:46:20.000Z</time>
      </trkpt>
      <trkpt lat="45.15376" lon="4.01433">
        <ele>910</ele>
        <time>2017-08-14T13:46:49.000Z</time>
      </trkpt>
      <trkpt lat="45.15375" lon="4.01432">
        <ele>910</ele>
        <time>2017-08-14T13:46:50.000Z</time>
      </trkpt>
      <trkpt lat="45.15352" lon="4.01435">
        <ele>911</ele>
        <time>2017-08-14T13:48:00.000Z</time>
      </trkpt>
      <trkpt lat="45.15352" lon="4.01435">
        <ele>912</ele>
        <time>2017-08-14T13:48:01.000Z</time>
      </trkpt>
      <trkpt lat="45.15332" lon="4.01451">
        <ele>907</ele>
        <time>2017-08-14T13:49:09.000Z</time>
      </trkpt>
      <trkpt lat="45.15331" lon="4.01452">
        <ele>907</ele>
        <time>2017-08-14T13:49:10.000Z</time>
      </trkpt>
      <trkpt lat="45.15307" lon="4.01468">
        <ele>906</ele>
        <time>2017-08-14T13:49:36.000Z</time>
      </trkpt>
      <trkpt lat="45.15306" lon="4.01468">
        <ele>906</ele>
        <time>2017-08-14T13:49:37.000Z</time>
      </trkpt>
      <trkpt lat="45.15284" lon="4.0148">
        <ele>904</ele>
        <time>2017-08-14T13:49:57.000Z</time>
      </trkpt>
      <trkpt lat="45.15283" lon="4.0148">
        <ele>904</ele>
        <time>2017-08-14T13:49:58.000Z</time>
      </trkpt>
      <trkpt lat="45.15264" lon="4.01497">
        <ele>902</ele>
        <time>2017-08-14T13:50:17.000Z</time>
      </trkpt>
      <trkpt lat="45.15263" lon="4.01498">
        <ele>902</ele>
        <time>2017-08-14T13:50:18.000Z</time>
      </trkpt>
      <trkpt lat="45.15242" lon="4.01512">
        <ele>895</ele>
        <time>2017-08-14T13:50:36.000Z</time>
      </trkpt>
      <trkpt lat="45.15238" lon="4.01515">
        <ele>895</ele>
        <time>2017-08-14T13:50:39.000Z</time>
      </trkpt>
      <trkpt lat="45.15215" lon="4.01522">
        <ele>892</ele>
        <time>2017-08-14T13:50:55.000Z</time>
      </trkpt>
      <trkpt lat="45.15213" lon="4.01522">
        <ele>892</ele>
        <time>2017-08-14T13:50:56.000Z</time>
      </trkpt>
      <trkpt lat="45.15191" lon="4.01528">
        <ele>892</ele>
        <time>2017-08-14T13:51:15.000Z</time>
      </trkpt>
      <trkpt lat="45.15189" lon="4.01528">
        <ele>893</ele>
        <time>2017-08-14T13:51:16.000Z</time>
      </trkpt>
      <trkpt lat="45.15164" lon="4.0152">
        <ele>894</ele>
        <time>2017-08-14T13:51:39.000Z</time>
      </trkpt>
      <trkpt lat="45.15163" lon="4.01518">
        <ele>895</ele>
        <time>2017-08-14T13:51:40.000Z</time>
      </trkpt>
      <trkpt lat="45.15144" lon="4.015">
        <ele>894</ele>
        <time>2017-08-14T13:51:57.000Z</time>
      </trkpt>
      <trkpt lat="45.15143" lon="4.01499">
        <ele>894</ele>
        <time>2017-08-14T13:51:58.000Z</time>
      </trkpt>
      <trkpt lat="45.15121" lon="4.01487">
        <ele>884</ele>
        <time>2017-08-14T13:52:39.000Z</time>
      </trkpt>
      <trkpt lat="45.1512" lon="4.01486">
        <ele>885</ele>
        <time>2017-08-14T13:52:40.000Z</time>
      </trkpt>
      <trkpt lat="45.15098" lon="4.01479">
        <ele>893</ele>
        <time>2017-08-14T13:52:55.000Z</time>
      </trkpt>
      <trkpt lat="45.15096" lon="4.01478">
        <ele>894</ele>
        <time>2017-08-14T13:52:56.000Z</time>
      </trkpt>
      <trkpt lat="45.15075" lon="4.01469">
        <ele>893</ele>
        <time>2017-08-14T13:53:13.000Z</time>
      </trkpt>
      <trkpt lat="45.15073" lon="4.01468">
        <ele>893</ele>
        <time>2017-08-14T13:53:14.000Z</time>
      </trkpt>
      <trkpt lat="45.15051" lon="4.01456">
        <ele>896</ele>
        <time>2017-08-14T13:53:31.000Z</time>
      </trkpt>
      <trkpt lat="45.15049" lon="4.01455">
        <ele>897</ele>
        <time>2017-08-14T13:53:32.000Z</time>
      </trkpt>
      <trkpt lat="45.1503" lon="4.01437">
        <ele>896</ele>
        <time>2017-08-14T13:53:50.000Z</time>
      </trkpt>
      <trkpt lat="45.15029" lon="4.01437">
        <ele>896</ele>
        <time>2017-08-14T13:53:51.000Z</time>
      </trkpt>
      <trkpt lat="45.1501" lon="4.01417">
        <ele>900</ele>
        <time>2017-08-14T13:54:08.000Z</time>
      </trkpt>
      <trkpt lat="45.1501" lon="4.01416">
        <ele>900</ele>
        <time>2017-08-14T13:54:09.000Z</time>
      </trkpt>
      <trkpt lat="45.1499" lon="4.014">
        <ele>889</ele>
        <time>2017-08-14T13:54:29.000Z</time>
      </trkpt>
      <trkpt lat="45.14989" lon="4.01399">
        <ele>888</ele>
        <time>2017-08-14T13:54:30.000Z</time>
      </trkpt>
      <trkpt lat="45.14968" lon="4.01385">
        <ele>892</ele>
        <time>2017-08-14T13:54:46.000Z</time>
      </trkpt>
      <trkpt lat="45.14967" lon="4.01384">
        <ele>892</ele>
        <time>2017-08-14T13:54:47.000Z</time>
      </trkpt>
      <trkpt lat="45.14944" lon="4.01376">
        <ele>890</ele>
        <time>2017-08-14T13:55:07.000Z</time>
      </trkpt>
      <trkpt lat="45.14943" lon="4.01376">
        <ele>890</ele>
        <time>2017-08-14T13:55:08.000Z</time>
      </trkpt>
      <trkpt lat="45.1492" lon="4.01369">
        <ele>893</ele>
        <time>2017-08-14T13:55:24.000Z</time>
      </trkpt>
      <trkpt lat="45.14919" lon="4.01369">
        <ele>893</ele>
        <time>2017-08-14T13:55:25.000Z</time>
      </trkpt>
      <trkpt lat="45.14896" lon="4.0136">
        <ele>888</ele>
        <time>2017-08-14T13:55:44.000Z</time>
      </trkpt>
      <trkpt lat="45.14895" lon="4.01359">
        <ele>888</ele>
        <time>2017-08-14T13:55:45.000Z</time>
      </trkpt>
      <trkpt lat="45.14874" lon="4.01346">
        <ele>889</ele>
        <time>2017-08-14T13:56:03.000Z</time>
      </trkpt>
      <trkpt lat="45.14872" lon="4.01345">
        <ele>889</ele>
        <time>2017-08-14T13:56:04.000Z</time>
      </trkpt>
      <trkpt lat="45.14849" lon="4.01338">
        <ele>887</ele>
        <time>2017-08-14T13:56:23.000Z</time>
      </trkpt>
      <trkpt lat="45.14848" lon="4.01337">
        <ele>888</ele>
        <time>2017-08-14T13:56:24.000Z</time>
      </trkpt>
      <trkpt lat="45.14825" lon="4.01328">
        <ele>888</ele>
        <time>2017-08-14T13:56:42.000Z</time>
      </trkpt>
      <trkpt lat="45.14824" lon="4.01328">
        <ele>888</ele>
        <time>2017-08-14T13:56:43.000Z</time>
      </trkpt>
      <trkpt lat="45.14803" lon="4.01318">
        <ele>883</ele>
        <time>2017-08-14T13:57:02.000Z</time>
      </trkpt>
      <trkpt lat="45.14801" lon="4.01317">
        <ele>882</ele>
        <time>2017-08-14T13:57:03.000Z</time>
      </trkpt>
      <trkpt lat="45.1478" lon="4.01304">
        <ele>878</ele>
        <time>2017-08-14T13:57:21.000Z</time>
      </trkpt>
      <trkpt lat="45.14779" lon="4.01303">
        <ele>878</ele>
        <time>2017-08-14T13:57:22.000Z</time>
      </trkpt>
      <trkpt lat="45.1476" lon="4.01285">
        <ele>879</ele>
        <time>2017-08-14T13:57:39.000Z</time>
      </trkpt>
      <trkpt lat="45.14758" lon="4.01283">
        <ele>880</ele>
        <time>2017-08-14T13:57:40.000Z</time>
      </trkpt>
      <trkpt lat="45.14739" lon="4.01266">
        <ele>888</ele>
        <time>2017-08-14T13:57:54.000Z</time>
      </trkpt>
      <trkpt lat="45.14738" lon="4.01266">
        <ele>887</ele>
        <time>2017-08-14T13:57:55.000Z</time>
      </trkpt>
      <trkpt lat="45.14715" lon="4.01257">
        <ele>884</ele>
        <time>2017-08-14T13:58:13.000Z</time>
      </trkpt>
      <trkpt lat="45.14714" lon="4.01256">
        <ele>884</ele>
        <time>2017-08-14T13:58:14.000Z</time>
      </trkpt>
      <trkpt lat="45.14692" lon="4.01242">
        <ele>880</ele>
        <time>2017-08-14T13:58:32.000Z</time>
      </trkpt>
      <trkpt lat="45.1469" lon="4.01241">
        <ele>880</ele>
        <time>2017-08-14T13:58:33.000Z</time>
      </trkpt>
      <trkpt lat="45.1467" lon="4.01222">
        <ele>880</ele>
        <time>2017-08-14T13:58:51.000Z</time>
      </trkpt>
      <trkpt lat="45.14669" lon="4.01221">
        <ele>880</ele>
        <time>2017-08-14T13:58:52.000Z</time>
      </trkpt>
      <trkpt lat="45.14651" lon="4.01202">
        <ele>876</ele>
        <time>2017-08-14T13:59:12.000Z</time>
      </trkpt>
      <trkpt lat="45.1465" lon="4.012">
        <ele>876</ele>
        <time>2017-08-14T13:59:13.000Z</time>
      </trkpt>
      <trkpt lat="45.14631" lon="4.01182">
        <ele>881</ele>
        <time>2017-08-14T13:59:30.000Z</time>
      </trkpt>
      <trkpt lat="45.14627" lon="4.01179">
        <ele>881</ele>
        <time>2017-08-14T13:59:33.000Z</time>
      </trkpt>
      <trkpt lat="45.14612" lon="4.01153">
        <ele>876</ele>
        <time>2017-08-14T14:00:39.000Z</time>
      </trkpt>
      <trkpt lat="45.14612" lon="4.01151">
        <ele>876</ele>
        <time>2017-08-14T14:00:40.000Z</time>
      </trkpt>
      <trkpt lat="45.14599" lon="4.01123">
        <ele>880</ele>
        <time>2017-08-14T14:00:59.000Z</time>
      </trkpt>
      <trkpt lat="45.14598" lon="4.01122">
        <ele>881</ele>
        <time>2017-08-14T14:01:00.000Z</time>
      </trkpt>
      <trkpt lat="45.14582" lon="4.01096">
        <ele>878</ele>
        <time>2017-08-14T14:01:17.000Z</time>
      </trkpt>
      <trkpt lat="45.14577" lon="4.0109">
        <ele>877</ele>
        <time>2017-08-14T14:01:21.000Z</time>
      </trkpt>
      <trkpt lat="45.14564" lon="4.01064">
        <ele>877</ele>
        <time>2017-08-14T14:01:41.000Z</time>
      </trkpt>
      <trkpt lat="45.14563" lon="4.01064">
        <ele>877</ele>
        <time>2017-08-14T14:01:42.000Z</time>
      </trkpt>
      <trkpt lat="45.1455" lon="4.01037">
        <ele>876</ele>
        <time>2017-08-14T14:02:00.000Z</time>
      </trkpt>
      <trkpt lat="45.14549" lon="4.01036">
        <ele>876</ele>
        <time>2017-08-14T14:02:01.000Z</time>
      </trkpt>
      <trkpt lat="45.14536" lon="4.01008">
        <ele>877</ele>
        <time>2017-08-14T14:02:19.000Z</time>
      </trkpt>
      <trkpt lat="45.14534" lon="4.01007">
        <ele>877</ele>
        <time>2017-08-14T14:02:20.000Z</time>
      </trkpt>
      <trkpt lat="45.14519" lon="4.00977">
        <ele>876</ele>
        <time>2017-08-14T14:02:38.000Z</time>
      </trkpt>
      <trkpt lat="45.14518" lon="4.00975">
        <ele>876</ele>
        <time>2017-08-14T14:02:39.000Z</time>
      </trkpt>
      <trkpt lat="45.14503" lon="4.00951">
        <ele>870</ele>
        <time>2017-08-14T14:03:00.000Z</time>
      </trkpt>
      <trkpt lat="45.14503" lon="4.00949">
        <ele>871</ele>
        <time>2017-08-14T14:03:01.000Z</time>
      </trkpt>
      <trkpt lat="45.14518" lon="4.00924">
        <ele>868</ele>
        <time>2017-08-14T14:03:29.000Z</time>
      </trkpt>
      <trkpt lat="45.14518" lon="4.00923">
        <ele>868</ele>
        <time>2017-08-14T14:03:30.000Z</time>
      </trkpt>
      <trkpt lat="45.14498" lon="4.00939">
        <ele>867</ele>
        <time>2017-08-14T14:04:29.000Z</time>
      </trkpt>
      <trkpt lat="45.14497" lon="4.00935">
        <ele>866</ele>
        <time>2017-08-14T14:04:32.000Z</time>
      </trkpt>
      <trkpt lat="45.14507" lon="4.00906">
        <ele>872</ele>
        <time>2017-08-14T14:04:51.000Z</time>
      </trkpt>
      <trkpt lat="45.14508" lon="4.00905">
        <ele>872</ele>
        <time>2017-08-14T14:04:52.000Z</time>
      </trkpt>
      <trkpt lat="45.14523" lon="4.0088">
        <ele>875</ele>
        <time>2017-08-14T14:05:12.000Z</time>
      </trkpt>
      <trkpt lat="45.14526" lon="4.00876">
        <ele>875</ele>
        <time>2017-08-14T14:05:15.000Z</time>
      </trkpt>
      <trkpt lat="45.14539" lon="4.00849">
        <ele>874</ele>
        <time>2017-08-14T14:05:32.000Z</time>
      </trkpt>
      <trkpt lat="45.1454" lon="4.00847">
        <ele>874</ele>
        <time>2017-08-14T14:05:33.000Z</time>
      </trkpt>
      <trkpt lat="45.14552" lon="4.0082">
        <ele>876</ele>
        <time>2017-08-14T14:05:51.000Z</time>
      </trkpt>
      <trkpt lat="45.14553" lon="4.00818">
        <ele>875</ele>
        <time>2017-08-14T14:05:52.000Z</time>
      </trkpt>
      <trkpt lat="45.14565" lon="4.00788">
        <ele>875</ele>
        <time>2017-08-14T14:06:09.000Z</time>
      </trkpt>
      <trkpt lat="45.14565" lon="4.00786">
        <ele>875</ele>
        <time>2017-08-14T14:06:10.000Z</time>
      </trkpt>
      <trkpt lat="45.14569" lon="4.00753">
        <ele>873</ele>
        <time>2017-08-14T14:06:28.000Z</time>
      </trkpt>
      <trkpt lat="45.14569" lon="4.00751">
        <ele>873</ele>
        <time>2017-08-14T14:06:29.000Z</time>
      </trkpt>
      <trkpt lat="45.14578" lon="4.00722">
        <ele>878</ele>
        <time>2017-08-14T14:06:46.000Z</time>
      </trkpt>
      <trkpt lat="45.14579" lon="4.00721">
        <ele>878</ele>
        <time>2017-08-14T14:06:47.000Z</time>
      </trkpt>
      <trkpt lat="45.14594" lon="4.00696">
        <ele>882</ele>
        <time>2017-08-14T14:07:08.000Z</time>
      </trkpt>
      <trkpt lat="45.14594" lon="4.00695">
        <ele>882</ele>
        <time>2017-08-14T14:07:09.000Z</time>
      </trkpt>
      <trkpt lat="45.14611" lon="4.00672">
        <ele>876</ele>
        <time>2017-08-14T14:07:27.000Z</time>
      </trkpt>
      <trkpt lat="45.14612" lon="4.0067">
        <ele>875</ele>
        <time>2017-08-14T14:07:28.000Z</time>
      </trkpt>
      <trkpt lat="45.14625" lon="4.00644">
        <ele>877</ele>
        <time>2017-08-14T14:07:46.000Z</time>
      </trkpt>
      <trkpt lat="45.14625" lon="4.00642">
        <ele>877</ele>
        <time>2017-08-14T14:07:47.000Z</time>
      </trkpt>
      <trkpt lat="45.14614" lon="4.00614">
        <ele>873</ele>
        <time>2017-08-14T14:08:05.000Z</time>
      </trkpt>
      <trkpt lat="45.14614" lon="4.00612">
        <ele>873</ele>
        <time>2017-08-14T14:08:06.000Z</time>
      </trkpt>
      <trkpt lat="45.14621" lon="4.00582">
        <ele>862</ele>
        <time>2017-08-14T14:08:27.000Z</time>
      </trkpt>
      <trkpt lat="45.14621" lon="4.0058">
        <ele>862</ele>
        <time>2017-08-14T14:08:28.000Z</time>
      </trkpt>
      <trkpt lat="45.14638" lon="4.00557">
        <ele>874</ele>
        <time>2017-08-14T14:08:49.000Z</time>
      </trkpt>
      <trkpt lat="45.14639" lon="4.00557">
        <ele>874</ele>
        <time>2017-08-14T14:08:50.000Z</time>
      </trkpt>
      <trkpt lat="45.14661" lon="4.00547">
        <ele>877</ele>
        <time>2017-08-14T14:09:15.000Z</time>
      </trkpt>
      <trkpt lat="45.14662" lon="4.00547">
        <ele>877</ele>
        <time>2017-08-14T14:09:16.000Z</time>
      </trkpt>
      <trkpt lat="45.14685" lon="4.00545">
        <ele>878</ele>
        <time>2017-08-14T14:09:35.000Z</time>
      </trkpt>
      <trkpt lat="45.14685" lon="4.00545">
        <ele>878</ele>
        <time>2017-08-14T14:09:36.000Z</time>
      </trkpt>
      <trkpt lat="45.14708" lon="4.00547">
        <ele>882</ele>
        <time>2017-08-14T14:09:59.000Z</time>
      </trkpt>
      <trkpt lat="45.14709" lon="4.00547">
        <ele>882</ele>
        <time>2017-08-14T14:10:00.000Z</time>
      </trkpt>
      <trkpt lat="45.14723" lon="4.00521">
        <ele>889</ele>
        <time>2017-08-14T14:10:29.000Z</time>
      </trkpt>
      <trkpt lat="45.14724" lon="4.0052">
        <ele>889</ele>
        <time>2017-08-14T14:10:30.000Z</time>
      </trkpt>
      <trkpt lat="45.14724" lon="4.00487">
        <ele>891</ele>
        <time>2017-08-14T14:10:51.000Z</time>
      </trkpt>
      <trkpt lat="45.14724" lon="4.00485">
        <ele>891</ele>
        <time>2017-08-14T14:10:52.000Z</time>
      </trkpt>
      <trkpt lat="45.14723" lon="4.00451">
        <ele>892</ele>
        <time>2017-08-14T14:11:18.000Z</time>
      </trkpt>
      <trkpt lat="45.14725" lon="4.00448">
        <ele>892</ele>
        <time>2017-08-14T14:11:19.000Z</time>
      </trkpt>
      <trkpt lat="45.14738" lon="4.00421">
        <ele>895</ele>
        <time>2017-08-14T14:11:42.000Z</time>
      </trkpt>
      <trkpt lat="45.14738" lon="4.0042">
        <ele>894</ele>
        <time>2017-08-14T14:11:43.000Z</time>
      </trkpt>
      <trkpt lat="45.14747" lon="4.00389">
        <ele>898</ele>
        <time>2017-08-14T14:12:03.000Z</time>
      </trkpt>
      <trkpt lat="45.14747" lon="4.00388">
        <ele>899</ele>
        <time>2017-08-14T14:12:04.000Z</time>
      </trkpt>
      <trkpt lat="45.14755" lon="4.00357">
        <ele>901</ele>
        <time>2017-08-14T14:12:21.000Z</time>
      </trkpt>
      <trkpt lat="45.14755" lon="4.00356">
        <ele>901</ele>
        <time>2017-08-14T14:12:22.000Z</time>
      </trkpt>
      <trkpt lat="45.14749" lon="4.00325">
        <ele>903</ele>
        <time>2017-08-14T14:12:43.000Z</time>
      </trkpt>
      <trkpt lat="45.14748" lon="4.00323">
        <ele>903</ele>
        <time>2017-08-14T14:12:44.000Z</time>
      </trkpt>
      <trkpt lat="45.14769" lon="4.00309">
        <ele>907</ele>
        <time>2017-08-14T14:13:17.000Z</time>
      </trkpt>
      <trkpt lat="45.14771" lon="4.00309">
        <ele>907</ele>
        <time>2017-08-14T14:13:18.000Z</time>
      </trkpt>
      <trkpt lat="45.14791" lon="4.00325">
        <ele>906</ele>
        <time>2017-08-14T14:13:35.000Z</time>
      </trkpt>
      <trkpt lat="45.14792" lon="4.00327">
        <ele>907</ele>
        <time>2017-08-14T14:13:36.000Z</time>
      </trkpt>
      <trkpt lat="45.14812" lon="4.00344">
        <ele>908</ele>
        <time>2017-08-14T14:13:54.000Z</time>
      </trkpt>
      <trkpt lat="45.14813" lon="4.00345">
        <ele>908</ele>
        <time>2017-08-14T14:13:55.000Z</time>
      </trkpt>
      <trkpt lat="45.14829" lon="4.00369">
        <ele>911</ele>
        <time>2017-08-14T14:14:14.000Z</time>
      </trkpt>
      <trkpt lat="45.14831" lon="4.00373">
        <ele>912</ele>
        <time>2017-08-14T14:14:17.000Z</time>
      </trkpt>
      <trkpt lat="45.14859" lon="4.00378">
        <ele>923</ele>
        <time>2017-08-14T14:14:50.000Z</time>
      </trkpt>
      <trkpt lat="45.14864" lon="4.00376">
        <ele>925</ele>
        <time>2017-08-14T14:14:53.000Z</time>
      </trkpt>
      <trkpt lat="45.14882" lon="4.00355">
        <ele>924</ele>
        <time>2017-08-14T14:15:17.000Z</time>
      </trkpt>
      <trkpt lat="45.14882" lon="4.00354">
        <ele>924</ele>
        <time>2017-08-14T14:15:18.000Z</time>
      </trkpt>
      <trkpt lat="45.14902" lon="4.0034">
        <ele>933</ele>
        <time>2017-08-14T14:15:36.000Z</time>
      </trkpt>
      <trkpt lat="45.14903" lon="4.00339">
        <ele>934</ele>
        <time>2017-08-14T14:15:37.000Z</time>
      </trkpt>
      <trkpt lat="45.14922" lon="4.00321">
        <ele>929</ele>
        <time>2017-08-14T14:16:05.000Z</time>
      </trkpt>
      <trkpt lat="45.14923" lon="4.0032">
        <ele>928</ele>
        <time>2017-08-14T14:16:06.000Z</time>
      </trkpt>
      <trkpt lat="45.14945" lon="4.00305">
        <ele>932</ele>
        <time>2017-08-14T14:16:28.000Z</time>
      </trkpt>
      <trkpt lat="45.14946" lon="4.00304">
        <ele>932</ele>
        <time>2017-08-14T14:16:29.000Z</time>
      </trkpt>
      <trkpt lat="45.14956" lon="4.00274">
        <ele>932</ele>
        <time>2017-08-14T14:16:56.000Z</time>
      </trkpt>
      <trkpt lat="45.14956" lon="4.00272">
        <ele>932</ele>
        <time>2017-08-14T14:16:57.000Z</time>
      </trkpt>
      <trkpt lat="45.14948" lon="4.00243">
        <ele>926</ele>
        <time>2017-08-14T14:17:35.000Z</time>
      </trkpt>
      <trkpt lat="45.14948" lon="4.00243">
        <ele>926</ele>
        <time>2017-08-14T14:17:36.000Z</time>
      </trkpt>
      <trkpt lat="45.14947" lon="4.00241">
        <ele>923</ele>
        <time>2017-08-14T14:18:16.000Z</time>
      </trkpt>
    </trkseg>
  </trk>
</gpx>